Time;durP1;ratioP1;P1;durP2;ratioP2;P2;SDS_P1;SDS_P2;PMS_P1;PMS_P2;Temp;Humidity;BMP_temperature;BMP_pressure;BME280_temperature;BME280_humidity;BME280_pressure;Samples;Min_cycle;Max_cycle;Signal;HPM_P1;HPM_P2
2023/04/02 00:00:20;;;;;;;74.03;67.78;;;8.80;99.90;;;;;;4977163;28;20030;-82
2023/04/02 00:02:57;;;;;;;72.38;65.95;;;8.50;99.90;;;;;;4987019;28;20038;-82
2023/04/02 00:05:33;;;;;;;73.00;66.45;;;9.00;99.90;;;;;;4972929;28;20092;-82
2023/04/02 00:08:09;;;;;;;86.00;78.72;;;8.70;99.90;;;;;;4974128;28;20538;-82
2023/04/02 00:10:52;;;;;;;75.50;69.55;;;9.00;99.90;;;;;;4960646;28;20429;-82
2023/04/02 00:13:22;;;;;;;62.10;57.03;;;8.90;99.90;;;;;;4973942;28;20152;-82
2023/04/02 00:15:50;;;;;;;56.47;51.47;;;8.80;99.90;;;;;;4986494;28;20034;-82
2023/04/02 00:18:19;;;;;;;40.72;37.22;;;8.60;99.90;;;;;;4975014;28;20038;-82
2023/04/02 00:21:08;;;;;;;57.70;53.22;;;8.90;99.90;;;;;;4975097;28;20046;-82
2023/04/02 00:23:40;;;;;;;44.78;40.72;;;8.80;99.90;;;;;;4950975;28;20042;-82
2023/04/02 00:26:36;;;;;;;82.18;74.70;;;8.70;99.90;;;;;;4968932;28;20038;-82
2023/04/02 00:29:04;;;;;;;59.60;54.13;;;8.30;99.90;;;;;;4962590;28;20049;-82
2023/04/02 00:31:31;;;;;;;71.00;64.97;;;8.70;99.90;;;;;;4992487;28;20053;-82
2023/04/02 00:34:00;;;;;;;74.10;67.53;;;8.70;99.90;;;;;;4992679;28;20127;-82
2023/04/02 00:36:29;;;;;;;88.53;81.15;;;8.10;99.90;;;;;;4974941;28;20046;-82
2023/04/02 00:38:58;;;;;;;34.25;31.25;;;8.00;99.90;;;;;;4979554;28;20476;-82
2023/04/02 00:41:28;;;;;;;63.30;58.10;;;8.20;99.90;;;;;;4976453;28;20489;-82
2023/04/02 00:43:56;;;;;;;58.13;53.33;;;10.30;99.90;;;;;;4976736;28;20492;-82
2023/04/02 00:46:28;;;;;;;77.25;70.53;;;9.40;99.90;;;;;;4990626;28;20038;-82
2023/04/02 00:49:04;;;;;;;61.45;55.95;;;8.10;99.90;;;;;;4985054;28;20066;-82
2023/04/02 00:51:35;;;;;;;69.53;63.70;;;7.80;99.90;;;;;;4958366;28;20391;-82
2023/04/02 00:54:05;;;;;;;61.10;54.55;;;8.40;99.90;;;;;;4975533;28;20096;-82
2023/04/02 00:56:38;;;;;;;36.33;32.50;;;7.80;99.90;;;;;;4992996;28;20053;-82
2023/04/02 00:59:15;;;;;;;51.42;45.97;;;7.80;99.90;;;;;;4974809;28;20581;-82
2023/04/02 01:01:41;;;;;;;48.22;43.17;;;7.90;99.90;;;;;;4992347;28;20041;-82
2023/04/02 01:04:35;;;;;;;40.22;36.40;;;7.70;99.90;;;;;;4992968;28;20038;-82
2023/04/02 01:07:05;;;;;;;43.53;38.90;;;8.20;99.90;;;;;;4963752;28;20038;-82
2023/04/02 01:10:09;;;;;;;57.17;52.38;;;8.20;99.90;;;;;;4965204;28;20038;-82
2023/04/02 01:12:43;;;;;;;36.08;33.17;;;7.60;99.90;;;;;;4933635;28;20054;-82
2023/04/02 01:15:26;;;;;;;36.70;33.30;;;7.70;99.90;;;;;;4960577;28;20409;-82
2023/04/02 01:18:35;;;;;;;44.35;40.65;;;8.20;99.90;;;;;;4977347;28;20074;-82
2023/04/02 01:21:14;;;;;;;33.90;30.55;;;8.10;99.90;;;;;;4959276;28;20046;-82
2023/04/02 01:24:04;;;;;;;35.22;28.23;;;8.10;99.90;;;;;;4976900;28;20100;-82
2023/04/02 01:26:36;;;;;;;43.85;40.03;;;7.70;99.90;;;;;;4990541;28;20045;-82
2023/04/02 01:29:14;;;;;;;31.35;28.23;;;7.40;99.90;;;;;;4978405;28;20088;-82
2023/04/02 01:31:41;;;;;;;45.47;41.55;;;8.00;99.90;;;;;;4979777;28;20045;-82
2023/04/02 01:34:08;;;;;;;33.55;30.50;;;7.60;99.90;;;;;;4980025;28;20506;-82
2023/04/02 01:37:05;;;;;;;36.95;33.45;;;7.40;99.90;;;;;;4976369;28;20033;-82
2023/04/02 01:39:56;;;;;;;26.17;23.73;;;7.30;99.90;;;;;;4982811;28;20066;-82
2023/04/02 01:42:27;;;;;;;47.13;43.17;;;7.30;99.90;;;;;;4960196;28;20042;-82
2023/04/02 01:45:00;;;;;;;42.95;36.78;;;8.80;99.90;;;;;;4960245;28;20046;-82
2023/04/02 01:47:27;;;;;;;44.78;41.35;;;8.80;99.90;;;;;;4976225;28;20050;-82
2023/04/02 01:50:11;;;;;;;34.95;31.60;;;7.40;99.90;;;;;;4960282;28;20117;-82
2023/04/02 01:52:42;;;;;;;32.70;29.50;;;7.70;99.90;;;;;;4975760;28;20061;-82
2023/04/02 01:55:14;;;;;;;41.33;37.30;;;8.10;99.90;;;;;;4960967;28;20035;-82
2023/04/02 01:57:48;;;;;;;27.75;24.92;;;7.30;99.90;;;;;;4976854;28;20038;-79
2023/04/02 02:00:15;;;;;;;26.90;24.30;;;7.70;99.90;;;;;;4979145;28;20045;-79
2023/04/02 02:02:43;;;;;;;38.92;35.63;;;7.00;99.90;;;;;;4995334;28;20042;-79
2023/04/02 02:05:14;;;;;;;50.75;45.83;;;8.80;99.90;;;;;;4978268;28;20038;-79
2023/04/02 02:07:41;;;;;;;31.98;28.90;;;7.00;99.90;;;;;;4992929;28;20034;-79
2023/04/02 02:10:15;;;;;;;60.53;54.75;;;7.00;99.90;;;;;;4976184;28;20092;-79
2023/04/02 02:12:42;;;;;;;36.42;33.55;;;7.50;99.90;;;;;;4975815;28;20038;-79
2023/04/02 02:15:18;;;;;;;45.22;36.63;;;6.90;99.90;;;;;;4975574;28;20038;-80
2023/04/02 02:17:44;;;;;;;28.80;26.15;;;7.40;99.90;;;;;;4975125;28;20132;-79
2023/04/02 02:20:12;;;;;;;42.28;38.65;;;7.30;99.90;;;;;;4993867;28;20133;-79
2023/04/02 02:22:48;;;;;;;27.52;25.20;;;7.80;99.90;;;;;;4978394;28;20038;-79
2023/04/02 02:25:18;;;;;;;45.05;40.75;;;7.40;99.90;;;;;;4969104;28;20490;-79
2023/04/02 02:27:56;;;;;;;35.67;32.15;;;7.30;99.90;;;;;;4976782;28;20509;-79
2023/04/02 02:30:38;;;;;;;51.25;46.95;;;7.20;99.90;;;;;;4975710;28;20116;-79
2023/04/02 02:33:24;;;;;;;41.20;37.72;;;7.10;99.90;;;;;;4975545;28;20097;-79
2023/04/02 02:36:26;;;;;;;19.88;18.17;;;7.50;99.90;;;;;;4958197;28;20104;-79
2023/04/02 02:39:16;;;;;;;39.58;36.58;;;6.70;99.90;;;;;;4947929;28;20130;-79
2023/04/02 02:41:48;;;;;;;47.13;42.83;;;7.20;99.90;;;;;;4990940;28;20034;-79
2023/04/02 02:44:19;;;;;;;27.92;25.27;;;6.70;99.90;;;;;;4978470;28;20502;-79
2023/04/02 02:47:17;;;;;;;26.23;24.08;;;7.20;99.90;;;;;;4986372;28;20030;-79
2023/04/02 02:49:46;;;;;;;30.55;27.63;;;6.60;99.90;;;;;;4960078;28;20060;-79
2023/04/02 02:52:16;;;;;;;49.33;44.78;;;6.50;99.90;;;;;;4973521;28;20046;-79
2023/04/02 02:54:56;;;;;;;21.15;19.15;;;7.00;99.90;;;;;;4977151;28;20058;-79
2023/04/02 02:57:26;;;;;;;28.35;25.48;;;7.00;87.00;;;;;;4977831;28;20128;-79
2023/04/02 02:59:54;;;;;;;17.70;15.95;;;6.50;24.70;;;;;;4994159;28;20555;-79
2023/04/02 03:02:22;;;;;;;30.30;27.83;;;6.70;1.00;;;;;;4977648;28;20034;-79
2023/04/02 03:04:51;;;;;;;30.63;28.25;;;6.70;1.00;;;;;;4977983;28;20124;-79
2023/04/02 03:07:18;;;;;;;20.20;18.52;;;6.60;1.00;;;;;;4976194;28;20447;-79
2023/04/02 03:10:09;;;;;;;28.98;25.92;;;6.70;99.90;;;;;;4963953;28;20042;-79
2023/04/02 03:12:41;;;;;;;29.90;27.15;;;6.90;23.30;;;;;;4974016;28;20037;-79
2023/04/02 03:15:12;;;;;;;24.65;22.35;;;7.10;99.90;;;;;;4977717;28;20160;-79
2023/04/02 03:17:51;;;;;;;19.77;15.25;;;6.80;99.90;;;;;;4992455;28;20073;-79
2023/04/02 03:20:36;;;;;;;26.88;24.42;;;6.70;1.00;;;;;;4992882;28;20513;-79
2023/04/02 03:23:37;;;;;;;19.77;16.92;;;6.50;99.90;;;;;;4977701;28;20046;-79
2023/04/02 03:26:12;;;;;;;18.98;17.38;;;6.40;27.70;;;;;;4973296;28;20457;-79
2023/04/02 03:28:49;;;;;;;26.77;16.67;;;6.60;1.00;;;;;;4983622;28;20127;-79
2023/04/02 03:31:34;;;;;;;16.00;13.85;;;6.60;99.90;;;;;;4977338;28;20041;-79
2023/04/02 03:34:25;;;;;;;24.65;22.15;;;6.20;99.90;;;;;;4993654;28;20069;-79
2023/04/02 03:37:04;;;;;;;20.95;19.27;;;6.70;99.90;;;;;;4990717;28;20065;-79
2023/04/02 03:39:42;;;;;;;27.42;25.02;;;6.40;99.90;;;;;;4975486;28;20084;-79
2023/04/02 03:42:20;;;;;;;22.48;20.35;;;6.10;99.90;;;;;;4993501;28;20052;-79
2023/04/02 03:45:20;;;;;;;33.08;30.00;;;6.50;1.00;;;;;;4974064;28;20405;-79
2023/04/02 03:48:02;;;;;;;34.60;32.05;;;6.60;1.00;;;;;;4973682;28;20046;-79
2023/04/02 03:50:46;;;;;;;23.13;20.90;;;6.20;87.80;;;;;;4957010;28;20078;-79
2023/04/02 03:53:13;;;;;;;38.50;35.38;;;6.50;99.90;;;;;;4958404;28;20053;-79
2023/04/02 03:55:40;;;;;;;24.38;22.45;;;6.30;1.00;;;;;;4974378;28;20038;-79
2023/04/02 03:58:31;;;;;;;34.45;31.40;;;5.90;1.00;;;;;;4966619;28;20084;-79
2023/04/02 04:01:11;;;;;;;28.80;26.05;;;5.90;99.90;;;;;;4968749;28;20077;-79
2023/04/02 04:03:39;;;;;;;26.60;24.05;;;6.30;99.90;;;;;;4973946;28;20091;-79
2023/04/02 04:06:27;;;;;;;27.58;24.85;;;6.90;1.00;;;;;;4972370;28;20042;-79
2023/04/02 04:09:21;;;;;;;19.15;17.63;;;6.30;54.20;;;;;;4981820;28;20115;-79
2023/04/02 04:12:19;;;;;;;32.28;29.52;;;5.90;99.90;;;;;;4985282;28;20058;-79
2023/04/02 04:14:56;;;;;;;28.33;23.98;;;5.80;99.90;;;;;;4963128;28;20073;-79
2023/04/02 04:17:33;;;;;;;33.10;29.90;;;5.80;99.90;;;;;;4957355;28;20134;-79
2023/04/02 04:20:21;;;;;;;33.33;30.00;;;7.20;1.00;;;;;;4974990;28;20050;-79
2023/04/02 04:22:48;;;;;;;28.15;25.75;;;6.30;1.00;;;;;;4957308;28;20391;-79
2023/04/02 04:25:24;;;;;;;21.92;19.90;;;5.70;1.00;;;;;;4959690;28;20042;-79
2023/04/02 04:28:06;;;;;;;14.88;13.48;;;6.30;1.00;;;;;;4958084;28;20444;-79
2023/04/02 04:31:02;;;;;;;41.17;36.97;;;5.70;8.70;;;;;;4957576;28;20529;-79
2023/04/02 04:33:38;;;;;;;35.35;32.25;;;6.10;62.20;;;;;;4973432;28;20034;-79
2023/04/02 04:36:13;;;;;;;38.55;30.58;;;6.20;99.90;;;;;;4972463;28;20041;-79
2023/04/02 04:38:43;;;;;;;25.08;22.70;;;5.50;99.90;;;;;;4972984;28;20105;-79
2023/04/02 04:41:15;;;;;;;25.02;21.42;;;5.60;99.90;;;;;;4972931;28;20050;-79
2023/04/02 04:44:05;;;;;;;17.23;15.70;;;6.20;99.90;;;;;;4962673;28;20045;-79
2023/04/02 04:46:40;;;;;;;26.08;23.40;;;6.10;99.90;;;;;;4976214;28;20059;-79
2023/04/02 04:49:18;;;;;;;26.73;21.67;;;6.10;99.90;;;;;;4974387;28;20497;-79
2023/04/02 04:51:54;;;;;;;25.30;22.60;;;5.60;99.90;;;;;;4974892;28;20046;-79
2023/04/02 04:54:24;;;;;;;;;;;5.70;99.90;;;;;;4991607;28;20048;-79
2023/04/02 04:56:54;;;;;;;22.00;19.73;;;6.00;99.90;;;;;;4991999;28;20308;-79
2023/04/02 04:59:21;;;;;;;24.50;19.52;;;5.50;99.90;;;;;;4963426;28;20046;-79
2023/04/02 05:01:53;;;;;;;28.50;25.60;;;5.90;99.90;;;;;;4956793;28;20045;-79
2023/04/02 05:04:22;;;;;;;28.75;25.85;;;5.70;99.90;;;;;;4956878;28;20042;-79
2023/04/02 05:07:09;;;;;;;21.80;19.80;;;6.50;99.90;;;;;;4972545;28;20034;-79
2023/04/02 05:09:53;;;;;;;;;;;6.00;99.90;;;;;;4964184;28;20089;-79
2023/04/02 05:12:34;;;;;;;19.48;17.70;;;5.50;99.90;;;;;;4960106;28;19933;-79
2023/04/02 05:15:11;;;;;;;20.02;18.00;;;5.50;99.90;;;;;;4973674;28;20043;-79
2023/04/02 05:17:42;;;;;;;23.20;21.20;;;5.50;99.90;;;;;;4970073;28;20545;-79
2023/04/02 05:20:20;;;;;;;20.17;18.42;;;6.10;99.90;;;;;;4974552;28;20030;-79
2023/04/02 05:23:05;;;;;;;13.68;12.25;;;5.50;99.90;;;;;;4980385;28;20052;-79
2023/04/02 05:25:31;;;;;;;20.42;18.55;;;6.10;99.90;;;;;;4992783;28;20033;-79
2023/04/02 05:28:14;;;;;;;21.08;18.77;;;5.80;99.90;;;;;;4984433;28;20502;-79
2023/04/02 05:31:04;;;;;;;26.70;24.38;;;6.20;99.90;;;;;;4991910;28;20050;-79
2023/04/02 05:33:33;;;;;;;17.70;16.27;;;6.20;99.90;;;;;;4967541;28;20034;-79
2023/04/02 05:36:06;;;;;;;16.15;14.65;;;5.80;99.90;;;;;;4968293;28;20041;-79
2023/04/02 05:38:35;;;;;;;22.60;20.48;;;6.20;99.90;;;;;;4964612;28;20050;-79
2023/04/02 05:41:17;;;;;;;17.20;15.63;;;6.20;99.90;;;;;;4971998;28;20121;-79
2023/04/02 05:43:46;;;;;;;24.17;20.63;;;6.20;99.90;;;;;;4996643;28;20488;-79
2023/04/02 05:46:21;;;;;;;26.73;24.10;;;6.00;99.90;;;;;;4980217;28;20525;-79
2023/04/02 05:48:54;;;;;;;21.17;18.92;;;5.90;99.90;;;;;;4984376;28;20045;-79
2023/04/02 05:51:26;;;;;;;16.60;15.30;;;5.90;99.90;;;;;;4972588;28;20030;-79
2023/04/02 05:53:56;;;;;;;17.23;15.65;;;5.90;99.90;;;;;;5012871;28;20096;-79
2023/04/02 05:56:37;;;;;;;20.80;18.67;;;6.10;99.90;;;;;;4990326;28;20046;-79
2023/04/02 05:59:32;;;;;;;19.45;17.65;;;6.10;99.90;;;;;;4963059;28;20046;-79
2023/04/02 06:02:06;;;;;;;28.85;26.10;;;5.90;99.90;;;;;;4974938;28;20034;-79
2023/04/02 06:05:04;;;;;;;27.83;25.02;;;6.00;99.90;;;;;;4972707;28;20034;-79
2023/04/02 06:07:55;;;;;;;22.83;20.83;;;6.00;99.90;;;;;;4976487;28;20045;-79
2023/04/02 06:10:28;;;;;;;28.52;26.20;;;6.10;99.90;;;;;;4976446;28;20037;-79
2023/04/02 06:13:02;;;;;;;27.90;25.70;;;6.50;99.90;;;;;;4981927;28;20110;-79
2023/04/02 06:15:29;;;;;;;36.53;33.78;;;6.70;99.90;;;;;;4984663;28;20125;-79
2023/04/02 06:17:59;;;;;;;34.28;31.52;;;8.00;99.90;;;;;;4977497;28;20441;-79
2023/04/02 06:20:25;;;;;;;26.65;24.73;;;6.60;99.90;;;;;;4990099;28;20042;-79
2023/04/02 06:23:05;;;;;;;35.72;33.20;;;6.50;99.90;;;;;;4992463;28;20124;-79
2023/04/02 06:25:35;;;;;;;32.42;29.65;;;6.80;68.10;;;;;;4971847;28;20061;-79
2023/04/02 06:28:04;;;;;;;33.58;31.05;;;6.70;1.00;;;;;;4963579;28;20422;-79
2023/04/02 06:30:33;;;;;;;35.13;31.95;;;6.50;99.90;;;;;;4968569;28;20034;-79
2023/04/02 06:32:59;;;;;;;33.85;31.33;;;6.80;63.80;;;;;;4970986;28;20125;-79
2023/04/02 06:35:25;;;;;;;30.25;27.95;;;6.90;99.90;;;;;;4991991;28;20121;-79
2023/04/02 06:37:56;;;;;;;36.53;33.40;;;6.90;1.00;;;;;;4977916;28;20062;-79
2023/04/02 06:40:39;;;;;;;38.63;35.03;;;7.00;99.90;;;;;;4974406;28;20140;-79
2023/04/02 06:43:15;;;;;;;33.15;30.70;;;7.00;99.90;;;;;;4971324;28;20103;-79
2023/04/02 06:45:44;;;;;;;32.83;30.33;;;6.90;99.50;;;;;;4970518;28;20045;-79
2023/04/02 06:48:20;;;;;;;31.08;28.88;;;8.20;1.00;;;;;;4987207;28;20046;-79
2023/04/02 06:51:06;;;;;;;36.97;34.10;;;6.90;99.90;;;;;;4970480;28;20045;-79
2023/04/02 06:53:35;;;;;;;40.80;37.43;;;7.20;1.00;;;;;;4964805;28;20089;-79
2023/04/02 06:56:41;;;;;;;43.38;40.03;;;6.90;99.90;;;;;;4980714;28;20042;-79
2023/04/02 06:59:07;;;;;;;27.98;25.95;;;7.20;99.90;;;;;;4962695;28;20410;-79
2023/04/02 07:01:42;;;;;;;29.75;27.35;;;7.30;1.00;;;;;;4969372;28;20026;-79
2023/04/02 07:04:09;;;;;;;40.97;38.03;;;7.00;1.00;;;;;;4969731;28;20052;-79
2023/04/02 07:06:34;;;;;;;33.70;31.58;;;7.20;99.90;;;;;;4989654;28;20029;-79
2023/04/02 07:09:00;;;;;;;37.83;35.10;;;7.10;99.90;;;;;;4993906;28;20132;-79
2023/04/02 07:11:26;;;;;;;27.38;25.40;;;7.00;8.10;;;;;;4979682;28;20050;-79
2023/04/02 07:13:51;;;;;;;40.42;36.92;;;7.10;1.00;;;;;;4979123;28;20050;-89
2023/04/02 07:16:20;;;;;;;39.17;36.42;;;7.20;1.00;;;;;;4989639;28;20041;-90
2023/04/02 07:18:46;;;;;;;34.42;32.13;;;7.20;1.00;;;;;;4978065;28;20045;-90
2023/04/02 07:21:12;;;;;;;39.30;36.30;;;7.50;99.90;;;;;;4957739;28;20046;-90
2023/04/02 07:23:37;;;;;;;37.83;34.97;;;7.40;99.90;;;;;;4979601;28;20568;-90
2023/04/02 07:26:05;;;;;;;40.20;37.33;;;7.40;99.90;;;;;;4991117;28;20034;-91
2023/04/02 07:28:31;;;;;;;31.42;29.23;;;7.50;99.90;;;;;;4964324;28;20418;-93
2023/04/02 07:30:56;;;;;;;27.55;25.50;;;7.50;99.90;;;;;;4973697;28;20092;-93
2023/04/02 07:33:25;;;;;;;35.38;32.20;;;7.80;99.90;;;;;;4990447;28;20196;-93
2023/04/02 07:35:53;;;;;;;35.10;32.63;;;7.80;91.90;;;;;;4958744;28;20437;-93
2023/04/02 07:38:19;;;;;;;30.35;28.25;;;7.70;19.50;;;;;;4969802;28;20046;-92
2023/04/02 07:40:45;;;;;;;34.85;32.40;;;7.70;1.00;;;;;;4962913;28;20088;-93
2023/04/02 07:43:11;;;;;;;28.33;26.33;;;8.00;1.00;;;;;;4976947;28;20124;-93
2023/04/02 07:45:36;;;;;;;21.50;19.50;;;7.70;1.00;;;;;;4986109;28;20180;-93
2023/04/02 07:48:06;;;;;;;34.25;31.92;;;7.80;1.00;;;;;;4974382;28;20046;-93
2023/04/02 07:50:32;;;;;;;31.80;29.67;;;8.00;1.00;;;;;;4971448;28;20083;-92
2023/04/02 07:52:59;;;;;;;33.42;30.90;;;8.90;1.00;;;;;;4970392;28;20042;-92
2023/04/02 07:55:24;;;;;;;43.85;40.45;;;8.20;99.90;;;;;;4985453;28;20126;-92
2023/04/02 07:57:55;;;;;;;30.92;28.63;;;8.30;99.90;;;;;;4958119;28;20030;-92
2023/04/02 08:00:22;;;;;;;33.88;31.45;;;8.30;99.90;;;;;;4959118;28;20057;-93
2023/04/02 08:02:49;;;;;;;12.98;11.77;;;8.50;99.90;;;;;;4975058;28;20173;-92
2023/04/02 08:05:14;;;;;;;15.52;10.85;;;8.80;99.90;;;;;;4959467;28;20065;-92
2023/04/02 08:07:40;;;;;;;17.00;15.43;;;9.50;99.90;;;;;;4973263;28;20461;-92
2023/04/02 08:10:08;;;;;;;23.75;21.70;;;9.30;96.80;;;;;;4977179;28;20030;-94
2023/04/02 08:12:33;;;;;;;21.98;19.67;;;9.70;1.00;;;;;;4970495;28;20038;-93
2023/04/02 08:14:59;;;;;;;38.33;34.72;;;9.60;1.00;;;;;;4967337;28;20060;-92
2023/04/02 08:17:25;;;;;;;14.98;13.55;;;9.50;99.90;;;;;;4972910;28;20462;-92
2023/04/02 08:19:51;;;;;;;19.17;17.67;;;9.20;99.90;;;;;;4988803;28;20038;-92
2023/04/02 08:22:16;;;;;;;31.58;28.60;;;8.90;99.90;;;;;;4972379;28;20498;-92
2023/04/02 08:24:42;;;;;;;28.52;26.27;;;9.00;95.40;;;;;;4959140;28;20509;-92
2023/04/02 08:27:13;;;;;;;30.60;28.35;;;8.70;71.90;;;;;;4990793;28;20048;-92
2023/04/02 08:29:39;;;;;;;30.50;27.40;;;9.10;49.50;;;;;;4992290;28;20152;-91
2023/04/02 08:32:06;;;;;;;22.75;21.00;;;9.40;26.70;;;;;;4976689;28;20124;-92
2023/04/02 08:34:31;;;;;;;20.92;19.02;;;9.40;1.00;;;;;;4981524;28;20045;-92
2023/04/02 08:36:57;;;;;;;25.83;23.70;;;10.20;1.00;;;;;;4975224;28;20065;-88
2023/04/02 08:39:25;;;;;;;24.02;21.98;;;9.20;1.00;;;;;;4983671;28;20046;-89
2023/04/02 08:42:13;;;;;;;24.83;22.58;;;9.30;1.00;;;;;;4977896;28;20041;-89
2023/04/02 08:44:53;;;;;;;34.72;31.85;;;9.80;1.00;;;;;;4961355;28;20089;-89
2023/04/02 08:47:24;;;;;;;30.63;28.10;;;10.00;1.00;;;;;;4973082;28;20052;-90
2023/04/02 08:50:01;;;;;;;31.88;29.10;;;10.30;99.90;;;;;;4963867;28;20030;-89
2023/04/02 08:52:33;;;;;;;34.35;31.50;;;10.40;99.90;;;;;;4971540;28;20042;-89
2023/04/02 08:55:01;;;;;;;34.47;30.98;;;10.40;99.90;;;;;;4967215;28;20034;-89
2023/04/02 08:57:46;;;;;;;19.80;17.75;;;10.40;99.90;;;;;;4990304;28;20396;-89
2023/04/02 09:00:17;;;;;;;26.08;23.65;;;10.40;99.90;;;;;;4988872;28;20053;-89
2023/04/02 09:02:57;;;;;;;29.42;26.77;;;10.50;98.30;;;;;;4970465;28;20041;-89
2023/04/02 09:05:28;;;;;;;27.35;24.45;;;10.90;58.80;;;;;;4972585;28;20477;-89
2023/04/02 09:07:57;;;;;;;21.73;19.95;;;10.80;25.70;;;;;;4957249;28;20041;-89
2023/04/02 09:10:40;;;;;;;10.45;9.38;;;10.90;1.00;;;;;;4958060;28;20129;-89
2023/04/02 09:13:27;;;;;;;18.35;16.63;;;11.00;1.00;;;;;;4958405;28;20151;-89
2023/04/02 09:16:10;;;;;;;20.98;19.10;;;10.90;1.00;;;;;;4971779;28;20088;-89
2023/04/02 09:18:37;;;;;;;23.33;21.10;;;10.90;1.00;;;;;;4990674;28;20041;-80
2023/04/02 09:21:40;;;;;;;15.18;13.68;;;10.90;1.00;;;;;;4963933;28;20042;-81
2023/04/02 09:24:11;;;;;;;18.98;17.25;;;10.90;99.90;;;;;;4959493;28;20403;-80
2023/04/02 09:26:37;;;;;;;22.00;20.20;;;11.00;99.90;;;;;;4972077;28;20045;-80
2023/04/02 09:29:12;;;;;;;21.13;19.27;;;11.10;99.90;;;;;;4974334;28;20402;-80
2023/04/02 09:31:42;;;;;;;17.38;15.88;;;10.90;99.90;;;;;;4974346;28;20046;-81
2023/04/02 09:34:27;;;;;;;22.95;21.15;;;11.00;99.90;;;;;;4981889;28;20038;-81
2023/04/02 09:36:52;;;;;;;21.98;20.02;;;12.20;99.90;;;;;;4986289;28;20588;-80
2023/04/02 09:39:21;;;;;;;19.08;17.38;;;11.30;99.90;;;;;;4986653;28;20050;-80
2023/04/02 09:41:46;;;;;;;15.60;14.02;;;11.90;99.90;;;;;;4962479;28;20038;-80
2023/04/02 09:44:22;;;;;;;15.63;14.32;;;11.30;99.90;;;;;;4982199;28;20043;-81
2023/04/02 09:46:54;;;;;;;28.23;26.00;;;11.10;99.90;;;;;;4967483;28;20382;-81
2023/04/02 09:49:26;;;;;;;24.30;22.27;;;10.90;99.90;;;;;;4991716;28;20042;-80
2023/04/02 09:52:27;;;;;;;27.20;24.63;;;10.90;99.90;;;;;;4967407;28;20048;-81
2023/04/02 09:55:18;;;;;;;23.05;20.98;;;10.80;99.90;;;;;;4942669;28;20086;-80
2023/04/02 09:57:45;;;;;;;21.85;19.85;;;10.40;99.90;;;;;;4959023;28;20129;-80
2023/04/02 10:00:21;;;;;;;36.95;34.00;;;10.40;99.90;;;;;;4989654;28;20517;-80
2023/04/02 10:03:02;;;;;;;33.42;30.38;;;10.40;99.90;;;;;;4992584;28;20046;-80
2023/04/02 10:05:29;;;;;;;51.45;47.05;;;10.40;99.90;;;;;;4985476;28;20446;-80
2023/04/02 10:08:04;;;;;;;33.17;30.10;;;10.60;99.90;;;;;;4969075;28;20042;-80
2023/04/02 10:10:40;;;;;;;39.30;36.28;;;10.70;99.90;;;;;;4970720;28;20351;-80
2023/04/02 10:13:17;;;;;;;36.88;33.83;;;10.60;99.90;;;;;;4966149;28;20042;-80
2023/04/02 10:16:15;;;;;;;42.13;38.55;;;10.70;99.90;;;;;;4967369;28;20042;-81
2023/04/02 10:18:57;;;;;;;51.03;46.67;;;10.50;99.90;;;;;;4989323;28;20046;-80
2023/04/02 10:21:31;;;;;;;46.45;42.30;;;10.50;99.90;;;;;;4969188;28;20564;-81
2023/04/02 10:23:58;;;;;;;60.88;55.35;;;10.40;99.90;;;;;;4968608;28;20035;-80
2023/04/02 10:26:42;;;;;;;41.53;38.10;;;10.30;99.90;;;;;;4982113;28;20038;-80
2023/04/02 10:29:16;;;;;;;51.55;47.17;;;10.10;99.90;;;;;;4982245;28;20050;-83
2023/04/02 10:31:48;;;;;;;59.40;54.05;;;10.10;99.90;;;;;;4963244;28;20101;-80
2023/04/02 10:34:33;;;;;;;44.35;40.38;;;10.20;99.90;;;;;;4969439;28;20494;-80
2023/04/02 10:37:23;;;;;;;31.02;28.42;;;10.20;99.90;;;;;;4959558;28;20093;-81
2023/04/02 10:40:14;;;;;;;24.85;22.63;;;10.60;99.90;;;;;;4970120;28;20433;-81
2023/04/02 10:42:55;;;;;;;60.92;54.85;;;10.20;99.90;;;;;;4976022;28;20042;-81
2023/04/02 10:45:48;;;;;;;42.22;38.55;;;10.30;99.90;;;;;;4985809;28;20042;-81
2023/04/02 10:48:38;;;;;;;46.17;42.05;;;11.20;99.90;;;;;;4970468;28;20041;-81
2023/04/02 10:51:12;;;;;;;54.90;49.78;;;10.30;99.90;;;;;;4974049;28;20042;-80
2023/04/02 10:53:42;;;;;;;48.38;44.17;;;10.40;99.90;;;;;;4978606;28;20175;-81
2023/04/02 10:56:11;;;;;;;44.42;40.47;;;10.40;99.90;;;;;;4970507;28;20061;-80
2023/04/02 10:58:52;;;;;;;26.42;23.80;;;10.40;99.90;;;;;;4987667;28;20524;-80
2023/04/02 11:01:24;;;;;;;52.70;48.10;;;10.30;99.90;;;;;;4974610;28;20057;-81
2023/04/02 11:03:57;;;;;;;56.92;52.20;;;10.40;99.90;;;;;;4988179;28;20041;-81
2023/04/02 11:06:42;;;;;;;35.53;32.15;;;11.70;99.90;;;;;;4981439;28;20034;-80
2023/04/02 11:09:20;;;;;;;51.65;46.47;;;10.70;99.90;;;;;;4962736;28;20422;-80
2023/04/02 11:11:50;;;;;;;45.47;41.53;;;11.00;99.90;;;;;;4988003;28;20046;-80
2023/04/02 11:14:30;;;;;;;64.50;57.80;;;12.00;99.90;;;;;;4960258;28;20046;-80
2023/04/02 11:16:59;;;;;;;41.53;37.78;;;11.30;99.90;;;;;;4983196;28;20499;-80
2023/04/02 11:19:31;;;;;;;43.85;39.97;;;11.10;99.90;;;;;;4991225;28;20049;-80
2023/04/02 11:21:58;;;;;;;49.47;44.83;;;10.10;99.90;;;;;;4983145;28;20043;-81
2023/04/02 11:24:32;;;;;;;66.70;59.85;;;10.50;99.90;;;;;;4964336;28;20139;-81
2023/04/02 11:27:04;;;;;;;66.03;59.83;;;10.30;99.90;;;;;;4961944;28;20061;-81
2023/04/02 11:29:32;;;;;;;54.67;49.40;;;10.20;99.90;;;;;;4959436;28;20048;-81
2023/04/02 11:32:19;;;;;;;43.83;40.13;;;10.10;99.90;;;;;;4958725;28;20042;-81
2023/04/02 11:34:48;;;;;;;50.60;45.65;;;10.00;99.90;;;;;;4969195;28;20408;-81
2023/04/02 11:37:38;;;;;;;52.97;48.15;;;11.00;99.90;;;;;;4960443;28;20094;-81
2023/04/02 11:40:10;;;;;;;49.50;45.08;;;10.00;99.90;;;;;;4971558;28;20054;-81
2023/04/02 11:42:47;;;;;;;53.20;48.08;;;10.10;99.90;;;;;;4991146;28;20037;-81
2023/04/02 11:45:22;;;;;;;47.80;43.50;;;10.20;99.90;;;;;;4987637;28;20132;-81
2023/04/02 11:48:00;;;;;;;33.75;31.05;;;10.30;99.90;;;;;;4966218;28;20499;-82
2023/04/02 11:50:28;;;;;;;55.47;50.67;;;10.30;99.90;;;;;;4968017;28;20411;-81
2023/04/02 11:52:58;;;;;;;45.13;41.00;;;10.90;99.90;;;;;;4974846;28;20041;-82
2023/04/02 11:55:30;;;;;;;57.33;52.47;;;10.30;99.90;;;;;;4989698;28;20428;-81
2023/04/02 11:58:19;;;;;;;58.97;54.00;;;10.20;99.90;;;;;;4982616;28;20452;-81
2023/04/02 12:01:00;;;;;;;38.30;35.00;;;10.10;99.90;;;;;;4968558;28;20121;-81
2023/04/02 12:03:52;;;;;;;55.13;49.83;;;10.10;99.90;;;;;;4960677;28;20393;-82
2023/04/02 12:06:47;;;;;;;40.05;36.78;;;10.30;99.90;;;;;;4992801;28;20506;-81
2023/04/02 12:09:49;;;;;;;52.40;47.63;;;10.10;99.90;;;;;;4979143;28;20065;-81
2023/04/02 12:12:37;;;;;;;66.15;60.47;;;10.10;99.90;;;;;;4958663;28;20054;-81
2023/04/02 12:15:07;;;;;;;61.75;55.22;;;10.10;99.90;;;;;;4967807;28;20044;-81
2023/04/02 12:17:36;;;;;;;51.55;47.05;;;10.10;99.90;;;;;;4974759;28;20089;-81
2023/04/02 12:20:19;;;;;;;51.72;47.28;;;11.30;99.90;;;;;;4980679;28;20100;-82
2023/04/02 12:22:53;;;;;;;45.47;41.38;;;10.00;99.90;;;;;;4968365;28;20026;-81
2023/04/02 12:25:38;;;;;;;47.65;43.58;;;10.10;99.90;;;;;;4974727;28;20038;-81
2023/04/02 12:28:05;;;;;;;61.63;55.83;;;10.00;99.90;;;;;;4985913;28;20064;-81
2023/04/02 12:30:32;;;;;;;76.43;69.20;;;10.10;99.90;;;;;;4981053;28;20058;-81
2023/04/02 12:33:26;;;;;;;51.53;46.65;;;10.20;99.90;;;;;;4957490;28;20104;-81
2023/04/02 12:35:59;;;;;;;47.20;43.38;;;10.10;99.90;;;;;;4956289;28;20042;-81
2023/04/02 12:38:42;;;;;;;51.97;47.53;;;10.00;99.90;;;;;;4970863;28;20434;-81
2023/04/02 12:41:30;;;;;;;55.17;50.28;;;10.10;99.90;;;;;;4976642;28;20096;-81
2023/04/02 12:44:20;;;;;;;56.38;51.55;;;10.10;99.90;;;;;;4977992;28;20034;-81
2023/04/02 12:46:47;;;;;;;41.85;37.90;;;10.00;99.90;;;;;;4982147;28;20038;-81
2023/04/02 12:49:36;;;;;;;60.30;55.15;;;10.00;99.90;;;;;;4972805;28;20044;-81
2023/04/02 12:52:09;;;;;;;71.60;65.03;;;10.00;99.90;;;;;;4978123;28;20528;-81
2023/04/02 12:54:48;;;;;;;50.38;46.13;;;10.10;99.90;;;;;;4981086;28;20038;-81
2023/04/02 12:57:28;;;;;;;42.58;38.65;;;10.10;99.90;;;;;;4989580;28;20476;-81
2023/04/02 13:00:15;;;;;;;53.03;48.05;;;10.10;99.90;;;;;;4971729;28;20498;-82
2023/04/02 13:02:46;;;;;;;63.05;57.35;;;10.60;99.90;;;;;;4962996;28;20521;-81
2023/04/02 13:05:12;;;;;;;51.40;47.13;;;10.00;99.90;;;;;;4995461;28;20492;-81
2023/04/02 13:07:38;;;;;;;55.72;50.85;;;11.00;99.90;;;;;;4984464;28;20038;-81
2023/04/02 13:10:22;;;;;;;59.05;52.95;;;10.00;99.90;;;;;;4988621;28;20038;-80
2023/04/02 13:12:53;;;;;;;47.78;43.33;;;10.00;99.90;;;;;;4988633;28;20572;-81
2023/04/02 13:15:26;;;;;;;74.88;67.88;;;10.00;99.90;;;;;;4988857;28;20046;-81
2023/04/02 13:18:06;;;;;;;45.03;40.88;;;10.00;99.90;;;;;;4987019;28;20120;-81